Time;durP1;ratioP1;P1;durP2;ratioP2;P2;SDS_P1;SDS_P2;PMS_P1;PMS_P2;Temp;Humidity;BMP_temperature;BMP_pressure;BME280_temperature;BME280_humidity;BME280_pressure;Samples;Min_cycle;Max_cycle;Signal;HPM_P1;HPM_P2
2022/05/16 00:02:06;;;;;;;1.20;0.93;;;;;;;11.63;60.25;98281.06;4973266;28;20039;-47
2022/05/16 00:04:32;;;;;;;1.75;1.10;;;;;;;11.60;60.22;98283.88;4974147;28;20078;-47
2022/05/16 00:06:58;;;;;;;2.20;1.00;;;;;;;11.54;60.21;98279.03;4985219;28;20088;-46
2022/05/16 00:09:23;;;;;;;2.78;1.15;;;;;;;11.53;60.54;98279.97;4990658;28;20042;-47
2022/05/16 00:11:49;;;;;;;2.72;1.20;;;;;;;11.52;60.81;98279.13;4990309;28;20050;-48
2022/05/16 00:14:15;;;;;;;1.17;0.88;;;;;;;11.53;61.11;98275.59;4993199;28;20061;-50
2022/05/16 00:16:41;;;;;;;1.92;1.05;;;;;;;11.35;60.75;98251.53;4993110;28;20045;-47
2022/05/16 00:19:06;;;;;;;1.30;0.98;;;;;;;11.41;60.98;98269.34;4993255;28;20042;-48
2022/05/16 00:21:33;;;;;;;1.15;0.90;;;;;;;11.51;61.37;98287.03;4991912;28;20042;-48
2022/05/16 00:23:59;;;;;;;2.92;0.80;;;;;;;11.50;60.97;98282.75;4993027;28;20042;-52
2022/05/16 00:26:25;;;;;;;1.40;0.93;;;;;;;11.50;60.39;98295.78;4991567;28;20537;-51
2022/05/16 00:28:51;;;;;;;2.75;0.88;;;;;;;11.46;60.32;98285.53;4990848;28;20046;-50
2022/05/16 00:31:17;;;;;;;3.40;1.10;;;;;;;11.51;60.49;98284.44;4991661;28;20426;-49
2022/05/16 00:33:43;;;;;;;1.90;1.10;;;;;;;11.51;60.41;98284.44;4991624;28;20065;-47
2022/05/16 00:36:09;;;;;;;2.50;1.05;;;;;;;11.40;60.41;98275.53;4993235;28;20137;-48
2022/05/16 00:38:34;;;;;;;2.22;1.13;;;;;;;11.48;60.71;98294.09;4974688;28;20049;-49
2022/05/16 00:41:02;;;;;;;1.77;1.02;;;;;;;11.48;61.30;98290.66;4984713;28;20049;-52
2022/05/16 00:43:58;;;;;;;1.92;1.20;;;;;;;11.45;61.09;98294.28;4982123;28;20229;-49
2022/05/16 00:46:27;;;;;;;1.35;0.95;;;;;;;11.32;61.18;98297.69;4974194;28;20039;-48
2022/05/16 00:48:53;;;;;;;2.22;1.10;;;;;;;11.24;61.75;98290.38;4990297;28;20046;-47
2022/05/16 00:51:23;;;;;;;1.70;1.13;;;;;;;11.12;62.24;98275.47;4973393;28;20046;-47
2022/05/16 00:53:51;;;;;;;1.40;1.02;;;;;;;11.15;62.32;98287.47;4975257;28;20426;-46
2022/05/16 00:56:17;;;;;;;4.70;1.40;;;;;;;11.11;61.83;98292.00;4971703;28;20579;-46
2022/05/16 00:58:43;;;;;;;2.40;0.93;;;;;;;11.09;62.92;98293.88;4979243;28;20751;-51
2022/05/16 01:06:39;;;;;;;4.82;1.10;;;;;;;10.84;62.61;98275.41;4987751;28;20507;-48
2022/05/16 01:09:06;;;;;;;4.45;0.93;;;;;;;10.92;62.79;98297.44;4986424;28;20457;-47
2022/05/16 01:11:33;;;;;;;3.17;0.98;;;;;;;10.80;62.61;98300.75;4991099;28;20464;-48
2022/05/16 01:13:58;;;;;;;2.08;1.08;;;;;;;10.68;63.25;98288.44;4990874;28;20042;-47
2022/05/16 01:16:24;;;;;;;2.60;1.30;;;;;;;10.70;63.27;98303.94;4991917;28;20418;-50
2022/05/16 01:18:50;;;;;;;1.90;1.08;;;;;;;10.66;63.75;98308.50;4991617;28;20046;-48
2022/05/16 01:21:15;;;;;;;1.20;0.80;;;;;;;10.65;63.94;98308.56;4991525;28;20054;-48
2022/05/16 01:23:50;;;;;;;2.20;1.10;;;;;;;10.65;63.55;98298.19;4989796;28;20529;-48
2022/05/16 01:26:21;;;;;;;1.10;0.80;;;;;;;10.52;63.76;98291.06;4989884;28;20046;-49
2022/05/16 01:28:47;;;;;;;2.13;0.70;;;;;;;10.53;63.25;98310.09;4990048;28;20453;-47
2022/05/16 01:31:13;;;;;;;3.75;0.80;;;;;;;10.46;63.66;98306.19;4974405;28;20049;-47
2022/05/16 01:33:39;;;;;;;2.83;0.70;;;;;;;10.40;63.75;98307.38;4989658;28;20046;-48
2022/05/16 01:36:05;;;;;;;1.00;0.80;;;;;;;10.39;63.94;98315.22;4991987;28;20057;-47
2022/05/16 01:38:31;;;;;;;1.20;0.90;;;;;;;10.30;63.95;98302.75;4989520;28;20042;-48
2022/05/16 01:41:06;;;;;;;1.90;0.80;;;;;;;10.37;63.66;98317.91;4991635;28;20042;-47
2022/05/16 01:43:36;;;;;;;0.98;0.75;;;;;;;10.22;64.22;98297.97;4988918;28;20046;-49
2022/05/16 01:46:02;;;;;;;2.85;0.93;;;;;;;10.32;64.05;98332.06;4991333;28;20050;-50
2022/05/16 01:48:30;;;;;;;2.13;0.75;;;;;;;10.29;64.30;98327.06;4990809;28;20079;-47
2022/05/16 01:51:01;;;;;;;1.38;0.80;;;;;;;10.25;64.21;98341.97;4991611;28;20473;-51
2022/05/16 01:53:27;;;;;;;4.82;1.00;;;;;;;10.20;63.86;98339.59;4990058;28;20093;-47
2022/05/16 01:55:53;;;;;;;3.28;0.90;;;;;;;10.21;64.03;98340.44;4990115;28;20510;-51
2022/05/16 01:58:18;;;;;;;1.15;0.75;;;;;;;10.17;63.54;98341.53;4990062;28;20043;-47
2022/05/16 02:00:44;;;;;;;1.13;0.73;;;;;;;10.11;64.20;98344.44;4978889;28;20046;-47
2022/05/16 02:03:11;;;;;;;3.88;0.88;;;;;;;10.11;64.13;98341.84;4982698;28;20043;-49
2022/05/16 02:05:38;;;;;;;2.58;0.93;;;;;;;10.08;64.96;98334.22;4991416;28;20062;-49
2022/05/16 02:08:04;;;;;;;0.82;0.70;;;;;;;9.91;64.38;98326.47;4990107;28;20040;-46
2022/05/16 02:10:30;;;;;;;0.85;0.80;;;;;;;9.92;64.45;98338.56;4990782;28;20050;-49
2022/05/16 02:12:59;;;;;;;1.52;0.88;;;;;;;9.89;64.69;98330.94;4991490;28;20522;-47
2022/05/16 02:15:26;;;;;;;;;;;;;;;9.91;64.58;98339.47;4991442;28;20525;-47
2022/05/16 02:17:52;;;;;;;1.38;0.75;;;;;;;9.87;64.59;98341.41;4990700;28;19917;-47
2022/05/16 02:20:18;;;;;;;2.65;1.00;;;;;;;9.77;64.83;98343.66;4991000;28;20048;-46
2022/05/16 02:25:32;;;;;;;3.13;0.98;;;;;;;9.76;65.57;98341.97;4990353;28;20517;-46
2022/05/16 02:27:58;;;;;;;0.77;0.77;;;;;;;9.80;65.25;98353.00;4989233;28;20062;-47
2022/05/16 02:30:24;;;;;;;2.45;0.80;;;;;;;9.81;65.19;98353.84;4991098;28;20049;-48
2022/05/16 02:32:49;;;;;;;2.60;0.80;;;;;;;9.81;65.59;98346.06;4969875;28;20577;-51
2022/05/16 02:35:16;;;;;;;0.88;0.73;;;;;;;9.74;65.68;98343.78;4989829;28;20057;-48
2022/05/16 02:37:42;;;;;;;1.58;1.13;;;;;;;9.74;65.37;98350.72;4991573;28;20097;-48
2022/05/16 02:40:09;;;;;;;1.88;0.68;;;;;;;9.73;65.47;98355.06;4995138;28;20433;-47
2022/05/16 02:42:35;;;;;;;5.20;1.00;;;;;;;9.73;65.14;98362.06;4994737;28;20038;-49
2022/05/16 02:45:01;;;;;;;1.30;0.82;;;;;;;9.79;64.95;98364.31;4993666;28;20085;-47
2022/05/16 02:47:29;;;;;;;0.70;0.70;;;;;;;9.77;65.55;98356.63;4992433;28;20055;-49
2022/05/16 02:49:54;;;;;;;1.80;0.90;;;;;;;9.84;65.68;98362.31;4994278;28;20051;-48
2022/05/16 02:52:20;;;;;;;4.25;1.00;;;;;;;9.87;65.38;98362.16;4994537;28;20141;-46
2022/05/16 02:54:46;;;;;;;2.38;0.90;;;;;;;9.89;65.30;98362.09;4993832;28;20053;-45
2022/05/16 02:57:12;;;;;;;4.20;2.17;;;;;;;9.78;64.87;98352.28;4994166;28;20045;-47
2022/05/16 02:59:38;;;;;;;3.47;0.90;;;;;;;9.89;64.65;98367.28;4983452;28;20522;-48
2022/05/16 03:02:07;;;;;;;3.60;0.88;;;;;;;9.90;64.70;98364.59;4994318;28;20069;-48
2022/05/16 03:04:33;;;;;;;1.42;0.50;;;;;;;9.82;64.49;98352.94;4992207;28;20058;-49
2022/05/16 03:06:59;;;;;;;1.67;0.82;;;;;;;9.84;64.40;98358.91;4993771;28;20065;-50
2022/05/16 03:09:26;;;;;;;1.92;0.82;;;;;;;9.90;64.63;98376.72;4993103;28;20042;-48
2022/05/16 03:11:52;;;;;;;3.13;1.00;;;;;;;9.85;64.59;98376.13;4981117;28;20504;-47
2022/05/16 03:14:19;;;;;;;1.00;0.63;;;;;;;9.87;64.32;98374.28;4974993;28;20523;-49
2022/05/16 03:16:45;;;;;;;3.60;0.70;;;;;;;9.73;63.92;98362.84;4974991;28;20134;-48
2022/05/16 03:19:11;;;;;;;0.90;0.57;;;;;;;9.92;63.95;98369.69;4984951;28;20137;-48
2022/05/16 03:21:38;;;;;;;1.10;0.88;;;;;;;9.98;64.08;98374.56;4988930;28;20042;-47
2022/05/16 03:24:05;;;;;;;2.00;0.95;;;;;;;10.05;64.10;98370.72;4989959;28;20046;-50
2022/05/16 03:26:31;;;;;;;2.20;0.70;;;;;;;10.10;63.87;98376.53;4974994;28;20504;-47
2022/05/16 03:28:56;;;;;;;2.75;0.80;;;;;;;10.10;63.58;98369.56;4986299;28;20038;-48
2022/05/16 03:31:23;;;;;;;1.27;1.00;;;;;;;10.20;63.94;98377.75;4994407;28;20093;-46
2022/05/16 03:33:48;;;;;;;1.95;0.68;;;;;;;10.25;63.65;98373.16;4973378;28;20606;-48
2022/05/16 03:36:14;;;;;;;2.03;0.60;;;;;;;10.25;63.08;98375.75;4992210;28;20129;-47
2022/05/16 03:41:24;;;;;;;1.35;0.73;;;;;;;10.34;62.78;98383.03;4975255;28;20046;-49
2022/05/16 03:43:50;;;;;;;1.23;0.70;;;;;;;10.24;62.50;98362.81;4994052;28;20469;-47
2022/05/16 03:46:17;;;;;;;1.52;0.70;;;;;;;10.38;62.13;98371.53;4984394;28;20049;-48
2022/05/16 03:48:43;;;;;;;1.88;0.90;;;;;;;10.44;62.38;98379.00;4979085;28;20182;-47
2022/05/16 03:51:11;;;;;;;3.33;0.90;;;;;;;10.47;61.52;98381.44;4974385;28;20054;-47
2022/05/16 03:53:47;;;;;;;2.85;0.88;;;;;;;10.49;61.21;98383.94;4974087;28;20074;-46
2022/05/16 03:56:17;;;;;;;5.15;0.70;;;;;;;10.52;60.84;98371.63;4974060;28;20050;-49
2022/05/16 03:58:43;;;;;;;0.95;0.73;;;;;;;10.53;60.77;98381.09;4994553;28;20046;-50
2022/05/16 04:01:11;;;;;;;1.23;0.80;;;;;;;10.55;60.65;98379.25;4991122;28;20092;-48
2022/05/16 04:03:37;;;;;;;2.03;0.80;;;;;;;10.59;60.28;98372.13;4992516;28;20538;-52
2022/05/16 04:06:03;;;;;;;2.65;0.90;;;;;;;10.65;59.85;98370.94;4989408;28;20054;-51
2022/05/16 04:08:29;;;;;;;7.05;1.25;;;;;;;10.71;60.14;98373.22;4990324;28;20129;-50
2022/05/16 04:10:56;;;;;;;3.42;1.60;;;;;;;10.78;60.23;98369.34;4992480;28;20177;-50
2022/05/16 04:13:22;;;;;;;1.30;0.80;;;;;;;10.84;60.71;98367.22;4992096;28;20026;-49
2022/05/16 04:15:47;;;;;;;3.30;1.20;;;;;;;10.81;59.77;98358.78;4992638;28;20054;-51
2022/05/16 04:18:13;;;;;;;3.60;1.00;;;;;;;10.91;59.92;98363.38;4990705;28;20039;-52
2022/05/16 04:20:39;;;;;;;7.03;2.33;;;;;;;10.97;58.94;98367.38;4991776;28;20566;-48
2022/05/16 04:23:07;;;;;;;3.15;0.70;;;;;;;11.03;59.08;98373.09;4992432;28;20576;-51
2022/05/16 04:25:33;;;;;;;3.47;0.70;;;;;;;11.09;58.76;98364.09;4990837;28;20046;-47
2022/05/16 04:27:59;;;;;;;1.70;0.90;;;;;;;11.01;58.54;98345.47;4990424;28;20049;-52
2022/05/16 04:30:25;;;;;;;6.32;0.95;;;;;;;11.22;58.03;98375.44;4973741;28;20142;-50
2022/05/16 04:32:51;;;;;;;2.80;0.90;;;;;;;11.26;58.04;98371.75;4980840;28;20128;-45
2022/05/16 04:35:17;;;;;;;1.63;0.70;;;;;;;11.33;57.61;98367.88;4991097;28;20525;-48
2022/05/16 04:37:43;;;;;;;5.32;1.20;;;;;;;11.41;57.60;98362.19;4991840;28;20042;-48
2022/05/16 04:40:10;;;;;;;2.25;0.80;;;;;;;11.48;57.14;98366.97;4992195;28;20478;-49
2022/05/16 04:42:43;;;;;;;2.42;0.80;;;;;;;11.54;56.74;98362.31;4991342;28;20053;-49
2022/05/16 04:45:30;;;;;;;4.50;0.85;;;;;;;11.61;56.62;98361.03;4992405;28;20053;-49
2022/05/16 04:47:58;;;;;;;1.88;0.70;;;;;;;11.62;55.57;98366.13;4991998;28;20522;-49
2022/05/16 04:50:31;;;;;;;1.67;0.60;;;;;;;11.70;55.37;98368.28;4992509;28;20050;-49
2022/05/16 04:52:58;;;;;;;7.03;1.10;;;;;;;11.65;55.23;98352.13;4990988;28;20580;-49
2022/05/16 04:55:24;;;;;;;3.30;0.75;;;;;;;11.80;55.10;98367.69;4992262;28;20128;-52
2022/05/16 04:57:50;;;;;;;2.05;0.60;;;;;;;11.67;54.58;98332.03;4956735;28;20548;-47
2022/05/16 05:00:18;;;;;;;6.65;1.08;;;;;;;11.77;54.53;98352.25;4986839;28;20046;-47
2022/05/16 05:02:44;;;;;;;1.58;0.90;;;;;;;12.01;54.83;98357.72;4991915;28;20046;-47
2022/05/16 05:05:10;;;;;;;2.40;0.82;;;;;;;12.11;54.53;98366.66;4990851;28;20415;-50
2022/05/16 05:07:37;;;;;;;2.60;0.70;;;;;;;12.27;53.89;98370.00;4989857;28;20042;-48
2022/05/16 05:15:36;;;;;;;1.73;0.50;;;;;;;12.28;52.32;98350.81;4991524;28;20042;-48
2022/05/16 05:18:03;;;;;;;2.78;0.70;;;;;;;12.39;52.77;98373.59;4990701;28;20046;-49
2022/05/16 05:20:29;;;;;;;1.75;0.60;;;;;;;12.36;52.02;98373.78;4989851;28;20038;-49
2022/05/16 05:22:54;;;;;;;3.30;0.45;;;;;;;12.40;52.04;98362.25;4989882;28;20045;-48
2022/05/16 05:25:21;;;;;;;1.52;0.63;;;;;;;12.49;51.99;98360.81;4989903;28;20050;-53
2022/05/16 05:27:48;;;;;;;5.75;1.17;;;;;;;12.62;52.06;98359.94;4991380;28;20086;-49
2022/05/16 05:30:18;;;;;;;2.95;0.70;;;;;;;12.74;52.12;98364.38;5006926;28;20418;-50
2022/05/16 05:32:44;;;;;;;5.10;0.68;;;;;;;13.03;51.43;98366.88;4991690;28;20529;-51
2022/05/16 05:35:11;;;;;;;4.55;0.75;;;;;;;13.38;51.05;98362.81;4990945;28;20046;-51
2022/05/16 05:37:36;;;;;;;2.53;1.15;;;;;;;13.68;50.50;98361.69;4988048;28;20145;-48
2022/05/16 05:40:04;;;;;;;2.95;0.60;;;;;;;13.72;48.71;98369.19;4989498;28;20160;-49
2022/05/16 05:42:32;;;;;;;2.22;0.75;;;;;;;13.97;48.57;98358.72;4991797;28;20391;-48
2022/05/16 05:44:58;;;;;;;1.45;0.57;;;;;;;14.15;47.95;98367.09;4990205;28;20050;-50
2022/05/16 05:47:24;;;;;;;1.08;0.50;;;;;;;14.04;46.49;98337.41;4988609;28;20144;-48
2022/05/16 05:49:50;;;;;;;2.00;0.43;;;;;;;14.49;46.77;98354.28;4990402;28;20038;-49
2022/05/16 05:52:16;;;;;;;0.82;0.40;;;;;;;14.84;45.09;98361.25;4982175;28;20089;-48
2022/05/16 05:54:43;;;;;;;4.32;2.92;;;;;;;14.87;45.52;98352.34;4968979;28;20062;-48
2022/05/16 05:57:09;;;;;;;6.03;0.88;;;;;;;14.94;45.40;98364.03;4985742;28;20049;-47
2022/05/16 05:59:35;;;;;;;4.13;1.45;;;;;;;15.05;45.63;98366.72;4986839;28;20034;-46
2022/05/16 06:02:00;;;;;;;0.73;0.63;;;;;;;15.24;44.71;98355.69;4990035;28;20537;-46
2022/05/16 06:04:45;;;;;;;3.95;1.02;;;;;;;15.46;44.29;98362.78;4989390;28;20116;-48
2022/05/16 06:07:11;;;;;;;3.90;0.60;;;;;;;15.51;43.50;98352.81;4989435;28;20457;-50
2022/05/16 06:09:37;;;;;;;1.05;0.40;;;;;;;15.62;43.69;98353.69;4989057;28;20046;-47
2022/05/16 06:12:05;;;;;;;0.52;0.52;;;;;;;15.71;42.59;98359.19;4990191;28;20030;-47
2022/05/16 06:14:32;;;;;;;4.55;0.70;;;;;;;15.48;42.61;98363.53;4988613;28;20046;-49
2022/05/16 06:16:58;;;;;;;3.80;0.30;;;;;;;15.31;43.01;98359.53;4990168;28;20038;-49
2022/05/16 06:19:24;;;;;;;2.17;0.55;;;;;;;15.24;42.73;98361.78;4988899;28;20044;-50
2022/05/16 06:21:50;;;;;;;4.75;0.82;;;;;;;15.57;42.66;98362.84;4988479;28;20046;-46
2022/05/16 06:27:00;;;;;;;5.45;0.57;;;;;;;17.16;40.11;98363.31;4990757;28;20517;-47
2022/05/16 06:29:26;;;;;;;1.58;0.45;;;;;;;17.33;38.82;98360.09;4989757;28;20046;-47
2022/05/16 06:31:52;;;;;;;1.40;0.50;;;;;;;17.19;39.35;98368.31;4971089;28;20389;-49
2022/05/16 06:34:19;;;;;;;0.95;0.52;;;;;;;18.14;36.67;98356.75;4988769;28;20049;-49
2022/05/16 06:36:45;;;;;;;1.88;0.70;;;;;;;19.58;35.13;98355.28;4990641;28;20404;-48
2022/05/16 06:39:10;;;;;;;6.68;1.08;;;;;;;19.76;34.58;98335.97;4991079;28;20124;-48
2022/05/16 06:41:36;;;;;;;1.88;0.70;;;;;;;19.96;34.58;98362.28;4968920;28;20507;-51
2022/05/16 06:44:02;;;;;;;1.70;0.68;;;;;;;20.24;34.16;98361.34;4982570;28;20430;-49
2022/05/16 06:46:28;;;;;;;4.45;0.68;;;;;;;20.15;34.32;98355.13;4986192;28;20038;-49
2022/05/16 06:48:54;;;;;;;3.53;1.00;;;;;;;20.28;34.02;98353.00;4986126;28;20848;-48
2022/05/16 06:51:20;;;;;;;2.67;0.70;;;;;;;21.03;32.37;98356.31;4982512;28;20510;-46
2022/05/16 06:53:46;;;;;;;1.55;0.60;;;;;;;21.72;30.42;98361.69;4990911;28;20065;-51
2022/05/16 06:56:12;;;;;;;2.33;0.63;;;;;;;20.48;32.15;98351.13;4990665;28;20121;-53
2022/05/16 06:58:37;;;;;;;0.80;0.60;;;;;;;19.94;32.40;98361.59;4989291;28;20625;-51
2022/05/16 07:01:04;;;;;;;3.85;0.55;;;;;;;20.89;31.16;98357.66;4989583;28;20070;-51
2022/05/16 07:03:30;;;;;;;1.88;0.60;;;;;;;20.48;32.20;98356.41;4987874;28;20054;-48
2022/05/16 07:05:56;;;;;;;5.47;0.70;;;;;;;19.71;33.70;98354.03;4988141;28;20069;-50
2022/05/16 07:08:22;;;;;;;2.40;0.93;;;;;;;19.17;34.95;98359.03;4986856;28;20124;-51
2022/05/16 07:10:50;;;;;;;3.25;0.60;;;;;;;18.96;34.96;98362.66;4987201;28;20126;-51
2022/05/16 07:13:16;;;;;;;6.15;1.23;;;;;;;19.63;33.97;98360.97;4983240;28;20110;-47
2022/05/16 07:15:42;;;;;;;1.77;0.70;;;;;;;21.90;30.22;98362.50;4987728;28;20517;-51
2022/05/16 07:18:08;;;;;;;3.58;0.90;;;;;;;21.90;30.10;98365.13;4971419;28;20049;-47
2022/05/16 07:20:35;;;;;;;3.58;0.70;;;;;;;22.00;29.07;98356.28;4991656;28;20060;-50
2022/05/16 07:23:02;;;;;;;2.67;0.60;;;;;;;21.36;29.95;98357.47;4992551;28;20093;-47
2022/05/16 07:25:29;;;;;;;1.65;0.50;;;;;;;20.76;30.96;98356.38;4993540;28;20046;-49
2022/05/16 07:27:57;;;;;;;4.38;0.50;;;;;;;20.18;31.82;98360.13;4991968;28;20046;-49
2022/05/16 07:30:25;;;;;;;5.07;0.60;;;;;;;19.60;32.68;98356.81;4975917;28;20043;-48
2022/05/16 07:32:51;;;;;;;6.72;0.88;;;;;;;19.06;33.53;98362.66;4974414;28;20035;-48
2022/05/16 07:35:18;;;;;;;10.82;6.20;;;;;;;18.56;34.16;98368.00;4989241;28;20038;-47
2022/05/16 07:37:44;;;;;;;3.92;1.45;;;;;;;18.24;35.01;98353.31;4993162;28;20130;-48
2022/05/16 07:40:11;;;;;;;5.88;0.60;;;;;;;17.91;35.05;98363.13;4992917;28;20128;-50
2022/05/16 07:42:37;;;;;;;1.42;0.60;;;;;;;17.33;35.59;98361.91;4990337;28;20039;-51
2022/05/16 07:45:06;;;;;;;2.03;0.57;;;;;;;16.83;36.20;98360.81;4992993;28;20042;-50
2022/05/16 07:47:32;;;;;;;4.38;0.50;;;;;;;16.71;36.41;98360.00;4988288;28;20065;-51
2022/05/16 07:49:59;;;;;;;0.55;0.35;;;;;;;16.58;36.11;98363.69;4991399;28;20038;-52
2022/05/16 07:52:26;;;;;;;0.57;0.50;;;;;;;16.67;35.90;98366.44;4991451;28;20144;-50
2022/05/16 07:54:52;;;;;;;2.03;0.47;;;;;;;17.70;34.66;98368.41;4990471;28;20046;-54
2022/05/16 07:57:18;;;;;;;2.15;0.50;;;;;;;17.82;34.47;98355.19;4990752;28;20490;-49
2022/05/16 07:59:44;;;;;;;2.03;0.47;;;;;;;17.46;35.11;98359.94;5012363;28;20042;-49
2022/05/16 08:02:12;;;;;;;1.30;0.45;;;;;;;17.23;36.27;98374.13;4988305;28;20034;-49
2022/05/16 08:04:37;;;;;;;2.60;0.95;;;;;;;17.21;36.40;98373.44;4991538;28;20069;-49
2022/05/16 08:07:04;;;;;;;2.50;0.50;;;;;;;19.94;32.76;98364.25;4993026;28;20046;-48
2022/05/16 08:12:36;;;;;;;1.85;0.65;;;;;;;24.30;26.08;98379.19;4990221;28;20090;-51
2022/05/16 08:15:02;;;;;;;0.55;0.55;;;;;;;25.46;24.63;98363.25;5015837;28;20600;-51
2022/05/16 08:17:29;;;;;;;3.42;0.80;;;;;;;27.36;23.36;98373.88;4990761;28;20698;-51
2022/05/16 08:20:13;;;;;;;2.00;0.90;;;;;;;28.66;21.44;98371.53;4991744;28;20045;-50
2022/05/16 08:22:39;;;;;;;3.33;1.40;;;;;;;29.47;20.25;98375.91;4992098;28;20041;-50
2022/05/16 08:25:05;;;;;;;2.08;1.40;;;;;;;30.92;19.68;98377.53;4975436;28;20035;-51
2022/05/16 08:27:37;;;;;;;3.38;1.27;;;;;;;32.28;18.75;98371.38;4984514;28;20073;-48
2022/05/16 08:30:22;;;;;;;3.08;0.90;;;;;;;31.84;17.53;98375.06;4982316;28;20092;-49
2022/05/16 08:32:48;;;;;;;2.25;0.90;;;;;;;32.04;17.56;98374.03;4986974;28;20125;-46
2022/05/16 08:35:15;;;;;;;1.70;0.70;;;;;;;29.23;19.32;98356.88;4991027;28;20045;-48
2022/05/16 08:40:41;;;;;;;2.92;0.82;;;;;;;24.49;23.61;98359.38;4988062;28;20038;-47
2022/05/16 08:43:30;;;;;;;4.32;0.47;;;;;;;23.05;24.77;98357.53;4988173;28;20042;-46
2022/05/16 08:46:19;;;;;;;1.42;0.40;;;;;;;22.22;26.16;98359.22;4991714;28;20054;-46
2022/05/16 08:48:49;;;;;;;6.32;2.75;;;;;;;21.94;26.93;98355.09;4962741;28;20054;-46
2022/05/16 08:51:30;;;;;;;2.20;0.50;;;;;;;21.68;26.70;98356.88;4992446;28;20073;-45
2022/05/16 08:54:10;;;;;;;3.10;0.50;;;;;;;21.39;27.34;98355.34;4964669;28;20085;-45
2022/05/16 08:56:38;;;;;;;1.95;0.50;;;;;;;21.23;27.73;98346.47;4971384;28;20150;-47
2022/05/16 08:59:07;;;;;;;1.97;0.50;;;;;;;21.31;27.81;98346.50;4995288;28;20494;-44
2022/05/16 09:01:55;;;;;;;0.93;0.50;;;;;;;21.16;28.08;98351.50;4983560;28;20360;-48
2022/05/16 09:04:48;;;;;;;4.10;0.40;;;;;;;20.84;27.49;98348.53;4981567;28;20149;-46
2022/05/16 09:07:44;;;;;;;2.05;0.43;;;;;;;20.61;27.85;98348.13;4988135;28;20066;-45
2022/05/16 09:10:15;;;;;;;3.15;0.50;;;;;;;20.73;27.52;98347.75;4988850;28;20047;-44
2022/05/16 09:12:50;;;;;;;2.63;0.60;;;;;;;20.52;28.00;98352.47;4990484;28;20041;-46
2022/05/16 09:15:38;;;;;;;1.48;0.50;;;;;;;19.85;29.16;98345.66;4989059;28;20129;-44
2022/05/16 09:18:29;;;;;;;2.05;0.75;;;;;;;19.08;30.52;98363.34;4988770;28;20477;-46
2022/05/16 09:21:17;;;;;;;3.55;0.43;;;;;;;18.23;31.70;98378.78;4978846;28;20121;-48
2022/05/16 09:24:17;;;;;;;4.10;0.30;;;;;;;17.03;34.74;98375.75;4990656;28;20129;-48
2022/05/16 09:27:09;;;;;;;1.27;0.40;;;;;;;16.32;36.23;98371.00;4981836;28;20077;-47
2022/05/16 09:29:45;;;;;;;2.20;0.40;;;;;;;16.09;36.85;98367.56;4969746;28;20137;-47
2022/05/16 09:32:12;;;;;;;0.47;0.40;;;;;;;16.17;37.00;98373.06;4955261;28;20039;-44
2022/05/16 09:34:38;;;;;;;1.65;0.50;;;;;;;16.21;37.74;98336.94;4965764;28;20514;-47
2022/05/16 09:37:04;;;;;;;3.95;0.57;;;;;;;16.64;38.17;98368.50;4974737;28;20041;-45
2022/05/16 09:39:31;;;;;;;1.73;0.55;;;;;;;16.72;37.42;98368.69;4971097;28;20584;-45
2022/05/16 09:42:21;;;;;;;2.92;0.52;;;;;;;16.62;38.13;98368.59;4976392;28;20153;-50
2022/05/16 09:44:48;;;;;;;4.78;0.50;;;;;;;16.77;37.90;98370.00;4974552;28;20050;-46
2022/05/16 09:47:18;;;;;;;0.90;0.52;;;;;;;16.80;37.88;98363.69;4971181;28;20042;-47
2022/05/16 09:49:46;;;;;;;6.55;0.80;;;;;;;16.83;37.99;98366.88;4980150;28;20042;-44
2022/05/16 09:52:20;;;;;;;2.60;1.05;;;;;;;17.18;37.53;98371.88;4985285;28;20038;-44
2022/05/16 09:55:03;;;;;;;2.50;0.90;;;;;;;17.58;36.40;98379.94;4974271;28;20038;-45
2022/05/16 09:57:32;;;;;;;2.67;0.43;;;;;;;17.97;35.02;98378.38;4989988;28;20591;-46
2022/05/16 10:00:16;;;;;;;1.03;0.40;;;;;;;18.35;34.02;98376.91;4987227;28;20122;-43
2022/05/16 10:02:42;;;;;;;1.10;0.40;;;;;;;18.02;34.39;98370.09;4990733;28;20373;-48
2022/05/16 10:05:23;;;;;;;0.95;0.40;;;;;;;17.81;35.23;98388.53;4980586;28;20058;-44
2022/05/16 10:07:58;;;;;;;0.57;0.30;;;;;;;17.15;36.03;98387.06;4971607;28;20121;-47
2022/05/16 10:10:26;;;;;;;2.28;0.60;;;;;;;17.00;36.45;98385.69;4990357;28;20045;-43
2022/05/16 10:12:53;;;;;;;1.42;0.50;;;;;;;16.74;36.19;98377.28;4989533;28;20042;-48
2022/05/16 10:15:20;;;;;;;3.95;1.17;;;;;;;16.99;35.88;98386.66;4970861;28;20042;-45
2022/05/16 10:17:47;;;;;;;1.42;0.52;;;;;;;17.57;34.88;98383.53;4987483;28;20042;-46
2022/05/16 10:20:26;;;;;;;3.17;1.15;;;;;;;19.96;31.52;98372.84;4986425;28;20042;-48
2022/05/16 10:22:57;;;;;;;5.32;1.50;;;;;;;21.77;29.71;98362.06;4987491;28;20537;-52
2022/05/16 10:25:27;;;;;;;0.50;0.50;;;;;;;23.09;26.93;98380.06;4988309;28;20038;-49
2022/05/16 10:27:55;;;;;;;1.85;0.60;;;;;;;24.38;25.17;98379.19;4988305;28;20421;-47
2022/05/16 10:30:25;;;;;;;7.75;2.38;;;;;;;26.12;24.63;98381.97;4989595;28;20160;-46
2022/05/16 10:35:49;;;;;;;1.40;0.80;;;;;;;29.14;20.69;98369.66;4985983;28;20048;-49
2022/05/16 10:39:01;;;;;;;2.03;0.90;;;;;;;30.33;20.00;98373.16;4989863;28;20053;-47
2022/05/16 10:41:43;;;;;;;1.70;0.80;;;;;;;30.38;18.77;98369.84;4953471;28;20495;-49
2022/05/16 10:44:20;;;;;;;2.80;0.85;;;;;;;29.65;19.27;98353.88;4984450;28;20442;-47
2022/05/16 10:46:59;;;;;;;2.22;0.90;;;;;;;29.20;19.48;98355.47;4989640;28;20158;-48
2022/05/16 10:49:31;;;;;;;2.78;0.75;;;;;;;30.04;18.96;98360.25;4988583;28;20561;-48
2022/05/16 10:52:09;;;;;;;5.10;0.68;;;;;;;29.23;19.90;98364.91;4969090;28;20423;-48
2022/05/16 10:54:35;;;;;;;7.57;1.15;;;;;;;29.18;20.00;98373.56;4987593;28;20129;-52
2022/05/16 10:57:42;;;;;;;1.98;1.00;;;;;;;29.67;20.36;98380.47;4989331;28;20132;-48
2022/05/16 11:00:14;;;;;;;3.80;1.15;;;;;;;30.87;19.76;98377.34;4942153;28;20074;-53
2022/05/16 11:03:05;;;;;;;2.15;0.70;;;;;;;30.89;19.29;98367.19;4989396;28;20062;-53
2022/05/16 11:05:39;;;;;;;1.83;0.52;;;;;;;29.19;19.77;98366.38;4990053;28;20150;-52
2022/05/16 11:08:40;;;;;;;2.10;1.10;;;;;;;29.31;19.58;98365.56;4989970;28;20038;-51
2022/05/16 11:11:12;;;;;;;2.58;0.80;;;;;;;30.48;18.88;98364.91;4912454;28;20540;-49
2022/05/16 11:14:16;;;;;;;5.65;2.53;;;;;;;29.02;19.64;98350.69;4992096;28;20052;-54
2022/05/16 11:16:42;;;;;;;5.13;2.67;;;;;;;28.31;19.55;98349.38;4978419;28;20163;-51
2022/05/16 11:19:49;;;;;;;4.20;0.60;;;;;;;27.73;19.64;98358.63;4988270;28;20050;-52
2022/05/16 11:22:23;;;;;;;1.98;0.52;;;;;;;26.78;19.73;98348.22;4954540;28;20407;-51
2022/05/16 11:25:01;;;;;;;2.50;0.60;;;;;;;27.01;19.78;98340.06;4981995;28;20057;-49
2022/05/16 11:27:35;;;;;;;3.63;0.75;;;;;;;28.65;19.08;98343.13;4993078;28;20399;-47
2022/05/16 11:30:07;;;;;;;2.17;0.82;;;;;;;29.35;18.37;98341.91;4988173;28;20188;-53
2022/05/16 11:33:02;;;;;;;1.20;0.70;;;;;;;29.68;17.95;98344.56;4990268;28;20038;-51
2022/05/16 11:35:36;;;;;;;1.65;0.47;;;;;;;29.17;18.81;98333.59;4989328;28;20038;-46
2022/05/16 11:38:24;;;;;;;1.98;0.25;;;;;;;28.69;18.98;98331.00;4993390;28;20069;-48
2022/05/16 11:41:14;;;;;;;1.38;0.52;;;;;;;27.40;20.34;98331.59;4977449;28;20039;-48
2022/05/16 11:43:51;;;;;;;3.25;1.20;;;;;;;27.81;20.17;98337.91;4992612;28;20053;-49
2022/05/16 11:46:37;;;;;;;4.70;1.58;;;;;;;27.33;19.96;98328.88;4993381;28;20074;-47
2022/05/16 11:49:08;;;;;;;6.50;2.03;;;;;;;25.46;20.09;98334.00;4992321;28;20080;-48
2022/05/16 11:51:52;;;;;;;1.75;0.35;;;;;;;24.30;21.14;98331.38;4989162;28;20046;-47
2022/05/16 11:54:24;;;;;;;6.47;1.25;;;;;;;23.77;21.51;98336.47;4982771;28;20042;-49
2022/05/16 12:02:29;;;;;;;4.90;0.50;;;;;;;21.73;23.56;98339.56;4992059;28;20057;-50
2022/05/16 12:05:08;;;;;;;1.27;0.50;;;;;;;21.57;24.35;98328.88;4989332;28;20065;-48
2022/05/16 12:07:35;;;;;;;1.05;0.57;;;;;;;21.79;24.07;98330.16;4972774;28;20069;-46
2022/05/16 12:10:10;;;;;;;1.60;0.50;;;;;;;22.77;23.47;98329.63;4991683;28;20072;-46
2022/05/16 12:12:42;;;;;;;3.17;0.70;;;;;;;24.58;22.00;98323.78;4989981;28;20121;-46
2022/05/16 12:15:27;;;;;;;4.32;0.80;;;;;;;26.87;20.34;98315.09;4989202;28;20038;-47
2022/05/16 12:17:58;;;;;;;0.60;0.38;;;;;;;26.69;20.16;98330.69;4990847;28;20045;-47
2022/05/16 12:20:35;;;;;;;2.35;0.40;;;;;;;25.79;21.04;98319.41;4987890;28;20046;-48
2022/05/16 12:23:01;;;;;;;1.17;0.80;;;;;;;25.89;21.30;98311.97;4987583;28;20430;-45